Thunderstorms From: 26-05-2018 21:24 Until: 27-05-2018 15:00 warning for: Thunderstorms Level: Yellow info button

Although rather usual in this region, locally or potentially dangerous phenomena are expected. (such as local winds, summer thunderstorms, rising streams or high waves) Be aware and pay attention to the latest weather updates, especially if you carry out activities exposed to weather or close to a stream or shoreline. 


Meteo18 Weather Cam more information Meteo18 Weather Cam


warning for Thunderstorms more information blitzortung!


Rain radar more information rain snow radar


Visit our other weather sites:

Template documentation
and downloads

And another site



Weather Underground History page Text

Daily Summary for June 22, 2016 Units:  Metric    English   Both
« Previous Day
Next Day »
Daily Weekly Monthly Yearly Custom
  High: Low: Average:
Temperature: -17.8 °C -9.9 °C -4.9 °C
Dew Point: -17.8 °C -10.1 °C -7.3 °C
Humidity: Humidity % 49 % 79 %
Wind Speed: 0 km/h 0 km/h 1.1 km/h
Wind Gust: 0 km/h - -
Wind:- - West
Pressure: 0 hPa 34452.6 hPa -
Precipitation: 0 mm    
Historical Graphs
 
 
Tabular Data for June 22, 2016
Time Temperature Dew Point Pressure Wind Wind Speed Wind Gust Humidity Rainfall Rate (Hourly)
-17.8 °C -17.8 °C 0 hPa Calm     Humidity % 0 mm
00:02 -8.4 °C -8.8 °C 34591.4 hPa Calm     96 % 0 mm
00:07 -8.4 °C -8.8 °C 34591.4 hPa Calm     96 % 0 mm
00:12 -8.4 °C -8.8 °C 34591.4 hPa Calm     96 % 0 mm
00:17 -8.5 °C -8.8 °C 34591.4 hPa Calm     96 % 0 mm
00:22 -8.5 °C -8.8 °C 34591.4 hPa Calm     96 % 0 mm
00:27 -8.6 °C -8.9 °C 34591.4 hPa Calm     96 % 0 mm
00:32 -8.7 °C -9 °C 34591.4 hPa Calm     96 % 0 mm
00:42 -8.7 °C -9.1 °C 34591.4 hPa Calm     96 % 0 mm
00:52 -8.8 °C -9.2 °C 34591.4 hPa Calm     96 % 0 mm
00:57 -8.8 °C -9.1 °C 34591.4 hPa Calm     97 % 0 mm
01:02 -8.8 °C -9.1 °C 34591.4 hPa Calm     97 % 0 mm
01:07 -8.8 °C -9.1 °C 34591.4 hPa Calm     97 % 0 mm
01:12 -8.8 °C -9.1 °C 34591.4 hPa Calm     97 % 0 mm
01:17 -8.8 °C -9.1 °C 34591.4 hPa Calm     97 % 0 mm
01:22 -8.8 °C -9.1 °C 34591.4 hPa Calm     97 % 0 mm
01:27 -8.8 °C -9.1 °C 34591.4 hPa Calm     97 % 0 mm
01:32 -8.8 °C -9.1 °C 34591.4 hPa Calm     97 % 0 mm
01:37 -8.8 °C -9.1 °C 34591.4 hPa Calm     97 % 0 mm
01:42 -8.8 °C -9.1 °C 34591.4 hPa Calm     97 % 0 mm
01:47 -8.8 °C -9.1 °C 34591.4 hPa Calm   2.6 km/h 97 % 0 mm
01:52 -8.8 °C -9.1 °C 34591.4 hPa Calm   2.6 km/h 97 % 0 mm
01:57 -8.9 °C -9.2 °C 34591.4 hPa Calm   2.6 km/h 97 % 0 mm
02:02 -8.9 °C -9.2 °C 34591.4 hPa Calm   2.6 km/h 97 % 0 mm
02:07 -9 °C -9.3 °C 34591.4 hPa Calm     97 % 0 mm
02:12 -9.1 °C -9.3 °C 34591.4 hPa Calm     97 % 0 mm
02:17 -9.2 °C -9.5 °C 34591.4 hPa Calm     97 % 0 mm
02:22 -9.2 °C -9.5 °C 34591.4 hPa Calm     97 % 0 mm
02:27 -9.2 °C -9.5 °C 34591.4 hPa Calm     97 % 0 mm
02:32 -9.2 °C -9.5 °C 34591.4 hPa Calm     97 % 0 mm
02:37 -9.2 °C -9.5 °C 34591.4 hPa Calm     97 % 0 mm
02:42 -9.2 °C -9.5 °C 34591.4 hPa Calm     97 % 0 mm
02:52 -9.1 °C -9.3 °C 34591.4 hPa Calm     98 % 0 mm
02:57 -9.1 °C -9.3 °C 34591.4 hPa Calm     98 % 0 mm
03:02 -9.1 °C -9.4 °C 34577.8 hPa Calm     97 % 0 mm
03:12 -9.1 °C -9.3 °C 34577.8 hPa Calm     98 % 0 mm
03:17 -9.1 °C -9.4 °C 34577.8 hPa Calm     97 % 0 mm
03:22 -9.2 °C -9.4 °C 34577.8 hPa Calm     97 % 0 mm
03:27 -9.2 °C -9.3 °C 34577.8 hPa Calm     98 % 0 mm
03:32 -9.2 °C -9.5 °C 34577.8 hPa Calm     97 % 0 mm
03:37 -9.3 °C -9.6 °C 34577.8 hPa Calm     97 % 0 mm
03:42 -9.3 °C -9.6 °C 34577.8 hPa Calm     97 % 0 mm
03:47 -9.3 °C -9.6 °C 34567.7 hPa Calm     97 % 0 mm
03:52 -9.3 °C -9.5 °C 34567.7 hPa Calm     98 % 0 mm
04:02 -9.4 °C -9.7 °C 34567.7 hPa Calm     97 % 0 mm
04:07 -9.5 °C -9.8 °C 34567.7 hPa Calm     97 % 0 mm
04:17 -9.4 °C -9.6 °C 34567.7 hPa Calm     98 % 0 mm
04:22 -9.4 °C -9.6 °C 34567.7 hPa Calm     98 % 0 mm
04:27 -9.4 °C -9.6 °C 34567.7 hPa Calm   2.6 km/h 98 % 0 mm
04:32 -9.5 °C -9.8 °C 34567.7 hPa Calm   2.6 km/h 97 % 0 mm
04:37 -9.6 °C -9.8 °C 34567.7 hPa Calm   2.6 km/h 97 % 0 mm
04:42 -9.7 °C -9.9 °C 34554.1 hPa Calm     97 % 0 mm
04:47 -9.6 °C -9.9 °C 34554.1 hPa Calm     97 % 0 mm
04:52 -9.6 °C -9.8 °C 34554.1 hPa Calm     98 % 0 mm
05:02 -9.6 °C -9.8 °C 34554.1 hPa Calm     98 % 0 mm
05:12 -9.7 °C -9.8 °C 34554.1 hPa Calm     98 % 0 mm
05:22 -9.8 °C -9.9 °C 34554.1 hPa Calm     98 % 0 mm
05:32 -9.8 °C -10 °C 34567.7 hPa Calm     98 % 0 mm
05:42 -9.8 °C -10 °C 34567.7 hPa Calm     98 % 0 mm
05:52 -9.8 °C -10 °C 34567.7 hPa Calm     98 % 0 mm
06:02 -9.8 °C -10 °C 34567.7 hPa Calm     98 % 0 mm
06:12 -9.8 °C -10 °C 34567.7 hPa Calm     98 % 0 mm
06:17 -9.9 °C -10.1 °C 34567.7 hPa Calm     98 % 0 mm
06:22 -9.9 °C -10.1 °C 34567.7 hPa Calm     98 % 0 mm
06:32 -9.9 °C -10.1 °C 34567.7 hPa Calm   2.6 km/h 98 % 0 mm
06:37 -9.9 °C -10.1 °C 34567.7 hPa Calm   2.6 km/h 98 % 0 mm
06:42 -9.9 °C -10.1 °C 34567.7 hPa Calm   2.6 km/h 98 % 0 mm
06:47 -9.8 °C -9.9 °C 34567.7 hPa Calm     98 % 0 mm
06:52 -9.7 °C -9.8 °C 34567.7 hPa Calm     98 % 0 mm
07:02 -9.6 °C -9.8 °C 34567.7 hPa Calm     98 % 0 mm
07:12 -9.5 °C -9.7 °C 34567.7 hPa Calm     98 % 0 mm
07:22 -9.2 °C -9.3 °C 34567.7 hPa Calm     98 % 0 mm
07:32 -9 °C -9.2 °C 34567.7 hPa Calm     98 % 0 mm
07:42 -8.6 °C -8.8 °C 34567.7 hPa Calm     98 % 0 mm
07:47 -8.4 °C -8.5 °C 34567.7 hPa Calm   2.6 km/h 99 % 0 mm
07:52 -8.3 °C -8.4 °C 34567.7 hPa Calm   2.6 km/h 99 % 0 mm
08:02 -8.1 °C -8.2 °C 34567.7 hPa Calm   2.6 km/h 99 % 0 mm
08:12 -7.9 °C -8.1 °C 34567.7 hPa Calm   2.6 km/h 99 % 0 mm
08:17 -7.9 °C -8 °C 34567.7 hPa Calm   2.6 km/h 99 % 0 mm
08:27 -7.6 °C -7.7 °C 34554.1 hPa Calm     99 % 0 mm
08:32 -7.5 °C -7.6 °C 34567.7 hPa Calm     99 % 0 mm
08:37 -7.4 °C -7.5 °C 34567.7 hPa Calm   2.6 km/h 99 % 0 mm
08:42 -7.3 °C -7.4 °C 34567.7 hPa Calm   2.6 km/h 99 % 0 mm
08:52 -7.2 °C -7.3 °C 34567.7 hPa Calm   5.1 km/h 99 % 0 mm
09:02 -6.8 °C -6.9 °C 34567.7 hPa Calm   2.6 km/h 99 % 0 mm
09:12 -6.6 °C -6.7 °C 34567.7 hPa Calm   5.1 km/h 98 % 0 mm
09:17 -6.3 °C -6.4 °C 34554.1 hPa Calm   5.1 km/h 98 % 0 mm
09:22 -6.2 °C -6.3 °C 34554.1 hPa Calm   5.1 km/h 98 % 0 mm
09:32 -5.7 °C -6.1 °C 34554.1 hPa ESE 2.6 km/h 5.1 km/h 96 % 0 mm
09:42 -5.1 °C -6.2 °C 34554.1 hPa Calm   7.7 km/h 89 % 0 mm
09:52 -4.6 °C -6.2 °C 34554.1 hPa Calm   7.7 km/h 84 % 0 mm
09:57 -4.4 °C -6.4 °C 34554.1 hPa WNW 2.6 km/h 7.7 km/h 80 % 0 mm
10:02 -4.2 °C -6.1 °C 34554.1 hPa Calm   7.7 km/h 82 % 0 mm
10:07 -4.1 °C -6.2 °C 34554.1 hPa NW 10.3 km/h 10.3 km/h 79 % 0 mm
10:17 -4 °C -6.3 °C 34554.1 hPa WSW 2.6 km/h 15.6 km/h 78 % 0 mm
10:22 -3.8 °C -6.2 °C 34554.1 hPa Calm   15.6 km/h 77 % 0 mm
10:32 -3.7 °C -6.2 °C 34554.1 hPa NNW 2.6 km/h 15.6 km/h 76 % 0 mm
10:37 -3.4 °C -6 °C 34554.1 hPa NNW 15.6 km/h 18.2 km/h 76 % 0 mm
10:42 -3.4 °C -6.1 °C 34554.1 hPa Calm   20.8 km/h 75 % 0 mm
10:47 -3.3 °C -6.2 °C 34554.1 hPa NNW 7.7 km/h 20.8 km/h 73 % 0 mm
10:52 -3.2 °C -5.8 °C 34544 hPa WNW 10.3 km/h 20.8 km/h 76 % 0 mm
10:57 -3.1 °C -6.3 °C 34544 hPa NNW 12.9 km/h 18.2 km/h 71 % 0 mm
11:02 -3.1 °C -6.3 °C 34544 hPa SSW 2.6 km/h 20.8 km/h 71 % 0 mm
11:12 -3 °C -6.1 °C 34544 hPa NNW 5.1 km/h 20.8 km/h 72 % 0 mm
11:17 -2.9 °C -6.2 °C 34544 hPa West 5.1 km/h 15.6 km/h 70 % 0 mm
11:22 -2.9 °C -6.4 °C 34544 hPa NNW 7.7 km/h 18.2 km/h 69 % 0 mm
11:27 -2.9 °C -6.3 °C 34544 hPa NNW 2.6 km/h 18.2 km/h 69 % 0 mm
11:32 -2.7 °C -6.2 °C 34544 hPa Calm   18.2 km/h 69 % 0 mm
11:37 -2.7 °C -6.2 °C 34544 hPa NNE 12.9 km/h 15.6 km/h 68 % 0 mm
11:42 -2.5 °C -5.9 °C 34544 hPa NW 2.6 km/h 15.6 km/h 69 % 0 mm
11:47 -2.6 °C -6.1 °C 34544 hPa NNW 5.1 km/h 15.6 km/h 68 % 0 mm
11:52 -2.4 °C -5.9 °C 34544 hPa NNW 5.1 km/h 15.6 km/h 69 % 0 mm
11:57 -2.3 °C -6.2 °C 34533.8 hPa NNE 10.3 km/h 15.6 km/h 66 % 0 mm
12:02 -2.3 °C -6.1 °C 34533.8 hPa Calm   23.3 km/h 67 % 0 mm
12:07 -2.1 °C -5.8 °C 34533.8 hPa Calm   23.3 km/h 67 % 0 mm
12:12 -2 °C -5.7 °C 34533.8 hPa NNW 10.3 km/h 12.9 km/h 67 % 0 mm
12:17 -2 °C -5.9 °C 34533.8 hPa ENE 2.6 km/h 12.9 km/h 66 % 0 mm
12:22 -2 °C -6 °C 34533.8 hPa North 7.7 km/h 12.9 km/h 65 % 0 mm
12:32 -1.8 °C -5.9 °C 34533.8 hPa North 7.7 km/h 18.2 km/h 64 % 0 mm
12:42 -1.6 °C -5.5 °C 34544 hPa Calm   15.6 km/h 66 % 0 mm
12:47 -1.7 °C -6.2 °C 34544 hPa NW 2.6 km/h 18.2 km/h 62 % 0 mm
12:52 -1.8 °C -6.1 °C 34544 hPa WNW 10.3 km/h 18.2 km/h 63 % 0 mm
13:02 -1.6 °C -6.2 °C 34544 hPa NW 7.7 km/h 18.2 km/h 61 % 0 mm
13:07 -1.5 °C -5.6 °C 34544 hPa Calm   20.8 km/h 65 % 0 mm
13:12 -1.4 °C -5.6 °C 34544 hPa Calm   20.8 km/h 64 % 0 mm
13:17 -1.5 °C -5.9 °C 34544 hPa Calm   18.2 km/h 62 % 0 mm
13:32 -1.3 °C -6.1 °C 34544 hPa Calm   12.9 km/h 60 % 0 mm
13:37 -1.2 °C -5.9 °C 34533.8 hPa NNW 10.3 km/h 18.2 km/h 60 % 0 mm
13:42 -1.3 °C -5.9 °C 34533.8 hPa WNW 2.6 km/h 18.2 km/h 61 % 0 mm
13:47 -1.2 °C -6.1 °C 34533.8 hPa WSW 2.6 km/h 15.6 km/h 59 % 0 mm
13:52 -1 °C -5.7 °C 34533.8 hPa North 7.7 km/h 15.6 km/h 61 % 0 mm
13:57 -0.9 °C -5.6 °C 34533.8 hPa Calm   10.3 km/h 61 % 0 mm
14:02 -0.8 °C -5.6 °C 34533.8 hPa Calm   10.3 km/h 60 % 0 mm
14:12 -0.7 °C -5.8 °C 34533.8 hPa Calm   10.3 km/h 58 % 0 mm
14:22 -0.8 °C -5 °C 34533.8 hPa Calm   10.3 km/h 64 % 0 mm
14:27 -0.7 °C -5.8 °C 34533.8 hPa Calm   10.3 km/h 58 % 0 mm
14:32 -0.6 °C -5.7 °C 34533.8 hPa Calm   10.3 km/h 58 % 0 mm
14:37 -0.5 °C -5.6 °C 34533.8 hPa Calm   10.3 km/h 58 % 0 mm
14:42 -0.4 °C -5.7 °C 34533.8 hPa Calm   15.6 km/h 57 % 0 mm
14:47 -0.2 °C -5.7 °C 34533.8 hPa Calm   15.6 km/h 56 % 0 mm
14:52 -0.1 °C -5.9 °C 34520.3 hPa Calm   15.6 km/h 54 % 0 mm
15:02 0.1 °C -5.6 °C 34520.3 hPa Calm   5.1 km/h 55 % 0 mm
15:07 0.2 °C -5.1 °C 34520.3 hPa NW 2.6 km/h 7.7 km/h 57 % 0 mm
15:12 -0.1 °C -5.9 °C 34520.3 hPa NNW 7.7 km/h 12.9 km/h 54 % 0 mm
15:17 -0.2 °C -4.9 °C 34520.3 hPa Calm   12.9 km/h 61 % 0 mm
15:22 -0.1 °C -5.9 °C 34510.1 hPa Calm   12.9 km/h 54 % 0 mm
15:27 -0.1 °C -5.9 °C 34510.1 hPa WSW 5.1 km/h 10.3 km/h 54 % 0 mm
15:32 -0.1 °C -5.8 °C 34510.1 hPa Calm   10.3 km/h 55 % 0 mm
15:37 -0.1 °C -6.1 °C 34510.1 hPa NW 5.1 km/h 12.9 km/h 53 % 0 mm
15:42 -0.2 °C -6 °C 34510.1 hPa Calm   12.9 km/h 54 % 0 mm
15:52 -0.2 °C -5.8 °C 34510.1 hPa NNW 7.7 km/h 12.9 km/h 55 % 0 mm
15:57 -0.4 °C -6 °C 34510.1 hPa Calm   15.6 km/h 55 % 0 mm
16:02 -0.4 °C -5.6 °C 34496.6 hPa NNW 2.6 km/h 15.6 km/h 58 % 0 mm
16:12 -0.3 °C -5.8 °C 34496.6 hPa SE 5.1 km/h 15.6 km/h 56 % 0 mm
16:17 -0.4 °C -5.7 °C 34496.6 hPa Calm   18.2 km/h 57 % 0 mm
16:22 -0.2 °C -4.8 °C 34496.6 hPa Calm   18.2 km/h 61 % 0 mm
16:27 -0.2 °C -5.8 °C 34496.6 hPa Calm   18.2 km/h 55 % 0 mm
16:32 -0.2 °C -6 °C 34496.6 hPa NW 5.1 km/h 18.2 km/h 54 % 0 mm
16:37 -0.2 °C -5.8 °C 34496.6 hPa Calm   12.9 km/h 55 % 0 mm
16:42 -0.1 °C -5.9 °C 34496.6 hPa NNW 2.6 km/h 12.9 km/h 54 % 0 mm
16:47 -0.2 °C -6 °C 34496.6 hPa Calm   12.9 km/h 54 % 0 mm
16:52 -0.2 °C -6 °C 34496.6 hPa Calm   12.9 km/h 54 % 0 mm
16:57 -0.1 °C -5.9 °C 34496.6 hPa Calm   12.9 km/h 54 % 0 mm
17:12 -0.1 °C -6.1 °C 34496.6 hPa NW 5.1 km/h 12.9 km/h 53 % 0 mm
17:22 -0.2 °C -6.2 °C 34486.4 hPa NW 2.6 km/h 12.9 km/h 53 % 0 mm
17:32 -0.2 °C -5.8 °C 34486.4 hPa Calm   12.9 km/h 55 % 0 mm
17:42 0.1 °C -5.6 °C 34486.4 hPa Calm   7.7 km/h 55 % 0 mm
17:47 0.1 °C -6.4 °C 34486.4 hPa NW 2.6 km/h 7.7 km/h 50 % 0 mm
17:57 0.1 °C -6.1 °C 34486.4 hPa Calm   7.7 km/h 52 % 0 mm
18:02 -0.1 °C -6.4 °C 34486.4 hPa WNW 5.1 km/h 7.7 km/h 51 % 0 mm
18:07 -0.1 °C -6.2 °C 34486.4 hPa Calm   10.3 km/h 52 % 0 mm
18:12 -0.2 °C -6.3 °C 34476.3 hPa Calm   7.7 km/h 52 % 0 mm
18:17 -0.2 °C -6.4 °C 34476.3 hPa Calm   7.7 km/h 52 % 0 mm
18:22 -0.2 °C -6.4 °C 34476.3 hPa Calm   7.7 km/h 52 % 0 mm
18:32 -0.2 °C -6.7 °C 34476.3 hPa Calm   10.3 km/h 50 % 0 mm
18:42 -0.3 °C -7 °C 34476.3 hPa West 2.6 km/h 7.7 km/h 49 % 0 mm
18:52 -0.2 °C -6 °C 34476.3 hPa Calm   10.3 km/h 54 % 0 mm
18:57 -0.3 °C -6.4 °C 34476.3 hPa Calm   7.7 km/h 52 % 0 mm
19:02 -0.6 °C -6.7 °C 34462.7 hPa Calm   7.7 km/h 52 % 0 mm
19:07 -0.7 °C -6.5 °C 34476.3 hPa West 2.6 km/h 5.1 km/h 54 % 0 mm
19:12 -0.9 °C -6.2 °C 34476.3 hPa Calm   7.7 km/h 57 % 0 mm
19:17 -1 °C -5.9 °C 34462.7 hPa Calm   7.7 km/h 59 % 0 mm
19:22 -1.2 °C -6.3 °C 34462.7 hPa Calm   7.7 km/h 58 % 0 mm
19:32 -1.3 °C -5.9 °C 34462.7 hPa Calm   2.6 km/h 61 % 0 mm
19:37 -1.5 °C -5.4 °C 34462.7 hPa Calm   2.6 km/h 66 % 0 mm
19:42 -1.7 °C -6.4 °C 34462.7 hPa Calm     60 % 0 mm
19:47 -1.8 °C -6.1 °C 34462.7 hPa Calm   5.1 km/h 63 % 0 mm
19:52 -2 °C -5.9 °C 34462.7 hPa Calm   5.1 km/h 66 % 0 mm
20:02 -2.3 °C -5.9 °C 34462.7 hPa Calm   2.6 km/h 68 % 0 mm
20:07 -2.4 °C -6.1 °C 34462.7 hPa Calm     67 % 0 mm
20:12 -2.4 °C -5.8 °C 34462.7 hPa Calm   2.6 km/h 69 % 0 mm
20:17 -2.6 °C -5.6 °C 34462.7 hPa Calm   2.6 km/h 72 % 0 mm
20:22 -2.7 °C -5.5 °C 34462.7 hPa Calm   2.6 km/h 74 % 0 mm
20:32 -3.1 °C -5.4 °C 34462.7 hPa Calm     78 % 0 mm
20:42 -3.4 °C -5.6 °C 34462.7 hPa Calm     79 % 0 mm
20:47 -3.5 °C -5.8 °C 34462.7 hPa Calm     78 % 0 mm
20:52 -3.6 °C -5.7 °C 34462.7 hPa Calm     80 % 0 mm
20:57 -3.7 °C -5.8 °C 34462.7 hPa Calm     80 % 0 mm
21:02 -3.8 °C -5.9 °C 34452.6 hPa Calm     80 % 0 mm
21:12 -4.1 °C -5.9 °C 34452.6 hPa Calm     82 % 0 mm
21:17 -4.3 °C -6.1 °C 34452.6 hPa Calm     83 % 0 mm
21:27 -4.6 °C -6.2 °C 34452.6 hPa Calm   2.6 km/h 84 % 0 mm
21:32 -4.7 °C -6.2 °C 34452.6 hPa Calm   2.6 km/h 85 % 0 mm
21:37 -4.8 °C -6.3 °C 34452.6 hPa Calm   2.6 km/h 85 % 0 mm
21:42 -4.9 °C -6.3 °C 34452.6 hPa Calm   2.6 km/h 86 % 0 mm
21:47 -5.1 °C -6.4 °C 34452.6 hPa Calm     86 % 0 mm
21:52 -5.2 °C -6.6 °C 34452.6 hPa Calm     86 % 0 mm
21:57 -5.3 °C -6.7 °C 34452.6 hPa Calm     86 % 0 mm
22:02 -5.4 °C -6.7 °C 34462.7 hPa Calm     87 % 0 mm
22:07 -5.5 °C -6.7 °C 34462.7 hPa Calm     88 % 0 mm
22:17 -5.7 °C -6.7 °C 34462.7 hPa Calm     89 % 0 mm
22:22 -5.7 °C -6.8 °C 34462.7 hPa Calm     89 % 0 mm
22:32 -5.7 °C -6.7 °C 34462.7 hPa Calm   2.6 km/h 90 % 0 mm
22:37 -5.7 °C -6.7 °C 34462.7 hPa Calm   2.6 km/h 90 % 0 mm
22:42 -5.8 °C -6.8 °C 34462.7 hPa Calm     90 % 0 mm
22:52 -6.1 °C -6.9 °C 34462.7 hPa Calm     91 % 0 mm
22:57 -6.2 °C -6.9 °C 34462.7 hPa Calm     92 % 0 mm
23:02 -6.2 °C -6.9 °C 34462.7 hPa Calm     92 % 0 mm
23:12 -6.2 °C -6.9 °C 34462.7 hPa Calm     92 % 0 mm
23:17 -6.2 °C -6.9 °C 34462.7 hPa Calm     92 % 0 mm
23:22 -6.2 °C -6.9 °C 34462.7 hPa Calm     92 % 0 mm
23:32 -6.2 °C -6.9 °C 34462.7 hPa Calm     92 % 0 mm
23:37 -6.2 °C -6.9 °C 34462.7 hPa Calm     92 % 0 mm
23:42 -6.3 °C -7 °C 34462.7 hPa Calm     92 % 0 mm
23:47 -6.3 °C -7 °C 34462.7 hPa Calm     92 % 0 mm
23:52 -6.3 °C -7 °C 34462.7 hPa Calm     93 % 0 mm
23:57 -6.3 °C -7 °C 34462.7 hPa Calm     93 % 0 mm
Meteo18
Compliments of Weather Underground - 4 mb

Script developed by  Jim McMurry - jmcmurry@mwt.net Adapted for the template by  Wim van der Kuil - Leuven-Template.eu

You find our weather info also at:

European Weather Network

Weather Underground

Equipment we use:

Weather-station
Davis Vue

Weather-program
Meteobridge

Weather-server
Raspberry PI 2 B+

Provider
1 and 1

Davis Vue

Meteobridge

Raspberry PI 2 B+

1 and 1